Time;durP1;ratioP1;P1;durP2;ratioP2;P2;SDS_P1;SDS_P2;PMS_P1;PMS_P2;Temp;Humidity;BMP_temperature;BMP_pressure;BME280_temperature;BME280_humidity;BME280_pressure;Samples;Min_cycle;Max_cycle;Signal;HPM_P1;HPM_P2
2022/10/12 00:00:22;;;;;;;14.05;5.03;;;18.30;70.50;;;;;;5055130;28;20033;-68
2022/10/12 00:02:47;;;;;;;19.23;4.75;;;18.30;70.60;;;;;;5055219;28;20041;-67
2022/10/12 00:05:13;;;;;;;24.30;6.22;;;18.30;70.60;;;;;;5055276;28;20043;-67
2022/10/12 00:07:39;;;;;;;15.82;5.05;;;18.30;70.30;;;;;;5055285;28;20139;-68
2022/10/12 00:10:05;;;;;;;17.60;4.95;;;18.20;70.30;;;;;;5055262;28;20056;-68
2022/10/12 00:12:30;;;;;;;19.60;5.82;;;18.30;70.10;;;;;;5053986;28;20095;-68
2022/10/12 00:14:56;;;;;;;13.07;4.40;;;18.30;69.90;;;;;;5055067;28;20041;-68
2022/10/12 00:17:22;;;;;;;16.83;4.85;;;18.30;69.60;;;;;;5055300;28;20037;-67
2022/10/12 00:19:49;;;;;;;12.40;4.28;;;18.30;69.50;;;;;;5037227;28;20128;-68
2022/10/12 00:22:15;;;;;;;15.93;4.22;;;18.30;69.10;;;;;;5054715;28;20432;-68
2022/10/12 00:24:41;;;;;;;14.18;4.40;;;18.30;69.20;;;;;;5054940;28;20041;-68
2022/10/12 00:27:06;;;;;;;13.05;4.60;;;18.30;69.30;;;;;;5055038;28;20060;-68
2022/10/12 00:29:32;;;;;;;14.23;4.68;;;18.30;69.40;;;;;;5054689;28;20033;-68
2022/10/12 00:31:58;;;;;;;18.52;5.05;;;18.30;69.20;;;;;;5054923;28;20037;-68
2022/10/12 00:34:23;;;;;;;14.75;4.78;;;18.20;69.20;;;;;;5054616;28;20094;-68
2022/10/12 00:36:49;;;;;;;12.45;5.50;;;18.20;69.20;;;;;;5054785;28;20033;-68
2022/10/12 00:39:15;;;;;;;12.68;4.13;;;18.20;69.50;;;;;;5054688;28;20033;-68
2022/10/12 00:41:42;;;;;;;14.90;4.20;;;18.20;69.00;;;;;;5054596;28;20108;-68
2022/10/12 00:44:34;;;;;;;16.80;4.45;;;18.20;69.20;;;;;;5054261;28;20033;-68
2022/10/12 00:47:05;;;;;;;16.98;4.63;;;18.20;68.30;;;;;;5054705;28;20059;-68
2022/10/12 00:49:31;;;;;;;12.13;4.25;;;18.10;68.70;;;;;;5036716;28;20033;-68
2022/10/12 00:52:01;;;;;;;19.75;5.78;;;18.20;68.70;;;;;;5054580;28;20044;-68
2022/10/12 00:54:31;;;;;;;20.13;4.80;;;18.10;68.90;;;;;;5053971;28;20040;-67
2022/10/12 00:57:00;;;;;;;19.20;5.57;;;18.10;68.70;;;;;;5054136;28;20044;-68
2022/10/12 00:59:55;;;;;;;13.15;4.28;;;18.10;68.30;;;;;;5051252;28;20063;-68
2022/10/12 01:02:22;;;;;;;23.08;5.15;;;18.10;68.50;;;;;;5030538;28;20033;-68
2022/10/12 01:04:48;;;;;;;14.35;4.82;;;18.10;68.50;;;;;;5052085;28;20485;-68
2022/10/12 01:07:14;;;;;;;17.17;4.82;;;18.10;68.70;;;;;;5053737;28;20052;-68
2022/10/12 01:09:40;;;;;;;18.25;4.90;;;18.10;68.60;;;;;;5053993;28;20033;-68
2022/10/12 01:12:07;;;;;;;16.60;4.80;;;18.10;68.60;;;;;;5054365;28;20037;-67
2022/10/12 01:14:33;;;;;;;18.00;4.35;;;18.00;68.70;;;;;;5053591;28;20431;-68
2022/10/12 01:17:10;;;;;;;17.08;5.18;;;18.00;68.80;;;;;;5053849;28;20033;-68
2022/10/12 01:19:51;;;;;;;14.05;4.40;;;18.00;68.90;;;;;;5053836;28;20033;-68
2022/10/12 01:22:19;;;;;;;22.40;4.85;;;18.00;69.20;;;;;;5053198;28;20033;-67
2022/10/12 01:25:41;;;;;;;13.40;4.32;;;17.90;68.80;;;;;;5053447;28;20031;-68
2022/10/12 01:28:48;;;;;;;22.77;4.82;;;17.90;68.60;;;;;;4972761;28;20125;-68
2022/10/12 01:31:31;;;;;;;13.85;4.20;;;17.90;68.80;;;;;;4972973;28;20039;-68
2022/10/12 01:34:35;;;;;;;14.18;4.50;;;17.90;68.70;;;;;;5052530;28;20074;-68
2022/10/12 01:37:09;;;;;;;15.43;4.82;;;17.90;68.60;;;;;;5023703;28;20045;-67
2022/10/12 01:39:45;;;;;;;17.98;5.63;;;17.90;68.90;;;;;;5053480;28;20036;-67
2022/10/12 01:42:16;;;;;;;14.75;4.35;;;17.90;68.70;;;;;;5053292;28;20037;-67
2022/10/12 01:44:42;;;;;;;14.23;4.35;;;17.90;68.50;;;;;;5053528;28;20528;-68
2022/10/12 01:47:08;;;;;;;20.77;4.60;;;17.90;68.40;;;;;;5053489;28;20045;-67
2022/10/12 01:49:34;;;;;;;10.10;3.92;;;17.80;68.30;;;;;;5052814;28;20481;-68
2022/10/12 01:52:33;;;;;;;14.38;4.50;;;17.80;68.40;;;;;;5052769;28;20037;-68
2022/10/12 01:55:10;;;;;;;18.65;5.32;;;17.80;68.20;;;;;;5053245;28;20041;-68
2022/10/12 01:57:56;;;;;;;15.43;3.95;;;17.80;68.40;;;;;;5053224;28;20029;-68
2022/10/12 02:00:22;;;;;;;13.30;4.50;;;17.80;68.60;;;;;;5039329;28;20458;-68
2022/10/12 02:03:19;;;;;;;21.42;4.63;;;17.80;68.50;;;;;;5053641;28;20062;-68
2022/10/12 02:06:01;;;;;;;11.38;4.68;;;17.80;68.80;;;;;;5052759;28;20049;-68
2022/10/12 02:08:46;;;;;;;17.73;4.97;;;17.80;68.90;;;;;;5053210;28;20029;-67
2022/10/12 02:11:15;;;;;;;9.52;3.72;;;17.80;69.00;;;;;;5053003;28;20076;-68
2022/10/12 02:14:12;;;;;;;11.85;4.72;;;17.70;69.30;;;;;;5052920;28;20033;-67
2022/10/12 02:16:46;;;;;;;15.68;4.78;;;17.70;69.40;;;;;;5035426;28;20068;-68
2022/10/12 02:19:16;;;;;;;21.58;5.15;;;17.70;69.80;;;;;;5052988;28;20477;-67
2022/10/12 02:21:43;;;;;;;16.77;4.50;;;17.60;70.00;;;;;;5052741;28;20059;-68
2022/10/12 02:24:10;;;;;;;18.50;4.45;;;17.60;70.30;;;;;;5052936;28;20033;-67
2022/10/12 02:26:40;;;;;;;18.92;4.38;;;17.60;70.80;;;;;;5052955;28;20508;-68
2022/10/12 02:29:09;;;;;;;20.50;4.68;;;17.60;70.80;;;;;;5052749;28;20112;-68
2022/10/12 02:31:46;;;;;;;14.48;5.20;;;17.60;71.00;;;;;;5052869;28;20033;-68
2022/10/12 02:34:15;;;;;;;18.45;4.30;;;17.50;71.70;;;;;;5052868;28;20037;-67
2022/10/12 02:37:08;;;;;;;13.65;4.55;;;17.50;71.00;;;;;;5056893;28;20094;-67
2022/10/12 02:40:08;;;;;;;16.35;4.75;;;17.50;72.30;;;;;;5056956;28;20036;-68
2022/10/12 02:42:39;;;;;;;13.07;4.28;;;17.40;71.20;;;;;;5056468;28;20052;-68
2022/10/12 02:45:08;;;;;;;17.15;5.53;;;17.40;71.30;;;;;;5056786;28;20052;-72
2022/10/12 02:47:35;;;;;;;17.33;4.72;;;17.40;71.70;;;;;;5056978;28;20041;-67
2022/10/12 02:50:02;;;;;;;17.00;4.50;;;17.30;71.30;;;;;;5056699;28;20033;-67
2022/10/12 02:52:31;;;;;;;13.85;4.75;;;17.30;71.80;;;;;;5056571;28;20433;-68
2022/10/12 02:54:56;;;;;;;15.98;4.20;;;17.30;71.80;;;;;;5056585;28;20527;-67
2022/10/12 02:57:22;;;;;;;15.55;4.85;;;17.30;71.80;;;;;;5056590;28;20100;-68
2022/10/12 02:59:48;;;;;;;16.40;4.38;;;17.20;72.30;;;;;;5056668;28;20068;-67
2022/10/12 03:02:13;;;;;;;16.83;5.35;;;17.20;72.30;;;;;;5056963;28;20025;-68
2022/10/12 03:04:39;;;;;;;18.67;4.15;;;17.20;72.20;;;;;;5056449;28;20037;-68
2022/10/12 03:07:05;;;;;;;13.35;4.93;;;17.20;72.10;;;;;;5034694;28;20080;-68
2022/10/12 03:09:30;;;;;;;19.42;5.55;;;17.10;72.50;;;;;;5036510;28;20061;-68
2022/10/12 03:11:56;;;;;;;18.73;4.43;;;17.10;72.20;;;;;;5036262;28;20079;-68
2022/10/12 03:14:22;;;;;;;14.75;4.15;;;17.10;72.20;;;;;;5036150;28;20496;-67
2022/10/12 03:16:48;;;;;;;12.63;4.30;;;17.10;72.50;;;;;;5036550;28;20528;-68
2022/10/12 03:19:14;;;;;;;18.65;4.80;;;17.10;72.90;;;;;;5036300;28;20044;-67
2022/10/12 03:21:40;;;;;;;14.10;5.72;;;17.00;72.90;;;;;;5036292;28;20040;-68
2022/10/12 03:24:06;;;;;;;15.05;4.72;;;17.00;73.10;;;;;;5036075;28;20550;-68
2022/10/12 03:26:32;;;;;;;15.85;4.50;;;16.90;73.00;;;;;;5034535;28;20124;-68
2022/10/12 03:28:58;;;;;;;14.18;4.30;;;16.90;73.10;;;;;;5035802;28;20099;-68
2022/10/12 03:31:24;;;;;;;22.33;4.53;;;16.80;73.60;;;;;;5036124;28;20483;-68
2022/10/12 03:33:49;;;;;;;15.60;4.28;;;16.80;74.20;;;;;;5036169;28;20037;-68
2022/10/12 03:36:15;;;;;;;12.07;4.47;;;16.80;74.50;;;;;;5035835;28;20033;-67
2022/10/12 03:38:40;;;;;;;15.88;4.57;;;16.80;74.50;;;;;;5035851;28;20061;-68
2022/10/12 03:41:06;;;;;;;12.93;4.80;;;16.80;74.70;;;;;;5035986;28;20397;-68
2022/10/12 03:43:33;;;;;;;19.58;4.55;;;16.80;75.00;;;;;;5035848;28;20525;-68
2022/10/12 03:45:59;;;;;;;20.42;4.57;;;16.70;74.80;;;;;;5035761;28;20095;-68
2022/10/12 03:48:24;;;;;;;21.15;5.22;;;16.70;74.60;;;;;;5035596;28;20033;-68
2022/10/12 03:50:51;;;;;;;15.57;4.50;;;16.70;74.90;;;;;;5035703;28;20472;-68
2022/10/12 03:53:18;;;;;;;12.93;4.40;;;16.70;74.70;;;;;;5035646;28;20033;-67
2022/10/12 03:55:44;;;;;;;13.20;4.13;;;16.70;74.80;;;;;;5035451;28;20037;-68
2022/10/12 03:58:10;;;;;;;13.00;4.72;;;16.60;74.90;;;;;;5035555;28;20474;-68
2022/10/12 04:00:36;;;;;;;9.88;4.10;;;16.60;74.60;;;;;;5035450;28;20049;-67
2022/10/12 04:03:02;;;;;;;8.00;4.13;;;16.60;74.80;;;;;;5035607;28;20030;-68
2022/10/12 04:05:28;;;;;;;18.75;4.53;;;16.60;75.10;;;;;;5036366;28;20045;-68
2022/10/12 04:07:54;;;;;;;16.67;5.65;;;16.50;75.40;;;;;;5055483;28;20389;-68
2022/10/12 04:10:19;;;;;;;20.73;7.90;;;16.50;75.40;;;;;;5055088;28;20045;-68
2022/10/12 04:12:46;;;;;;;14.27;9.07;;;16.50;75.60;;;;;;5055045;28;20037;-67
2022/10/12 04:15:12;;;;;;;13.40;6.40;;;16.50;75.70;;;;;;5055544;28;20395;-68
2022/10/12 04:17:37;;;;;;;13.95;6.22;;;16.40;75.70;;;;;;5054856;28;20025;-68
2022/10/12 04:20:04;;;;;;;17.33;5.75;;;16.40;75.90;;;;;;5054971;28;20104;-67
2022/10/12 04:22:30;;;;;;;10.90;5.47;;;16.40;75.80;;;;;;5055332;28;20128;-67
2022/10/12 04:24:55;;;;;;;15.52;4.57;;;16.40;76.20;;;;;;5054798;28;20112;-67
2022/10/12 04:27:21;;;;;;;14.18;4.85;;;16.30;76.10;;;;;;5054850;28;20033;-68
2022/10/12 04:29:47;;;;;;;19.55;5.20;;;16.30;76.50;;;;;;5054822;28;20081;-67
2022/10/12 04:32:12;;;;;;;11.57;4.95;;;16.30;76.70;;;;;;5054515;28;20482;-68
2022/10/12 04:34:38;;;;;;;14.15;5.43;;;16.30;76.90;;;;;;5054780;28;20033;-67
2022/10/12 04:37:04;;;;;;;14.07;4.35;;;16.20;77.00;;;;;;5054665;28;20033;-72
2022/10/12 04:39:30;;;;;;;11.68;4.88;;;16.20;77.10;;;;;;5036704;28;20037;-68
2022/10/12 04:41:56;;;;;;;13.45;4.30;;;16.20;76.90;;;;;;5054633;28;20533;-67
2022/10/12 04:44:21;;;;;;;18.23;4.85;;;16.10;76.90;;;;;;5054622;28;20110;-67
2022/10/12 04:46:47;;;;;;;15.15;4.97;;;16.20;77.40;;;;;;5054346;28;20509;-68
2022/10/12 04:49:13;;;;;;;13.27;4.68;;;16.20;77.10;;;;;;5054553;28;20485;-71
2022/10/12 04:51:39;;;;;;;15.65;5.25;;;16.10;76.90;;;;;;5054398;28;20036;-67
2022/10/12 04:54:04;;;;;;;12.07;4.10;;;16.10;77.10;;;;;;5054517;28;20033;-67
2022/10/12 04:56:30;;;;;;;12.93;4.82;;;16.10;77.30;;;;;;5054403;28;20106;-67
2022/10/12 04:58:56;;;;;;;19.25;5.40;;;16.10;77.40;;;;;;5053628;28;20527;-67
2022/10/12 05:01:22;;;;;;;21.27;4.78;;;16.00;77.30;;;;;;5054196;28;20033;-68
2022/10/12 05:03:48;;;;;;;18.42;4.75;;;16.00;77.00;;;;;;5054425;28;20082;-67
2022/10/12 05:06:13;;;;;;;14.95;4.93;;;16.00;76.80;;;;;;5054030;28;20087;-67
2022/10/12 05:08:39;;;;;;;14.23;4.60;;;16.00;77.00;;;;;;5054101;28;20112;-67
2022/10/12 05:11:05;;;;;;;17.60;5.00;;;16.00;76.70;;;;;;5053916;28;20048;-68
2022/10/12 05:13:31;;;;;;;16.45;4.72;;;16.00;76.50;;;;;;5054135;28;20505;-67
2022/10/12 05:15:56;;;;;;;13.23;4.72;;;16.00;76.10;;;;;;5053950;28;20029;-67
2022/10/12 05:18:22;;;;;;;14.02;4.35;;;16.00;75.70;;;;;;5053938;28;20470;-68
2022/10/12 05:20:48;;;;;;;12.80;4.53;;;16.00;75.70;;;;;;5053771;28;20108;-68
2022/10/12 05:23:14;;;;;;;20.33;4.78;;;16.10;75.70;;;;;;5053885;28;20044;-67
2022/10/12 05:25:40;;;;;;;17.98;4.95;;;16.10;75.60;;;;;;5053755;28;20094;-67
2022/10/12 05:28:06;;;;;;;15.75;4.75;;;16.10;75.40;;;;;;5054071;28;20503;-72
2022/10/12 05:30:32;;;;;;;11.05;3.97;;;16.10;75.50;;;;;;5053456;28;20397;-68
2022/10/12 05:32:58;;;;;;;15.65;4.60;;;16.10;75.20;;;;;;5053621;28;20033;-67
2022/10/12 05:35:24;;;;;;;10.73;4.57;;;16.10;75.10;;;;;;5053666;28;20044;-68
2022/10/12 05:37:49;;;;;;;16.92;4.80;;;16.10;74.80;;;;;;5053457;28;20036;-68
2022/10/12 05:40:15;;;;;;;18.52;4.85;;;16.20;75.10;;;;;;5053268;28;20033;-67
2022/10/12 05:42:41;;;;;;;18.60;4.93;;;16.20;75.20;;;;;;5053602;28;20033;-68
2022/10/12 05:45:07;;;;;;;15.35;5.13;;;16.20;74.80;;;;;;5053451;28;20033;-70
2022/10/12 05:47:32;;;;;;;17.33;5.93;;;16.30;74.80;;;;;;5053250;28;20032;-67
2022/10/12 05:49:58;;;;;;;19.58;4.93;;;16.30;74.90;;;;;;5053083;28;20503;-68
2022/10/12 05:52:24;;;;;;;14.82;4.65;;;16.30;74.80;;;;;;5053302;28;20033;-68
2022/10/12 05:54:49;;;;;;;11.68;4.28;;;16.30;74.90;;;;;;5053403;28;20036;-67
2022/10/12 05:57:15;;;;;;;17.65;5.18;;;16.30;75.40;;;;;;5053322;28;20108;-68
2022/10/12 05:59:41;;;;;;;18.13;4.40;;;16.40;75.60;;;;;;5052964;28;20060;-68
2022/10/12 06:02:11;;;;;;;14.63;5.18;;;16.40;75.40;;;;;;5053007;28;20389;-68
2022/10/12 06:04:37;;;;;;;21.58;4.70;;;16.40;75.30;;;;;;5053446;28;20033;-69
2022/10/12 06:07:02;;;;;;;20.08;4.88;;;16.40;75.30;;;;;;5052849;28;20053;-69
2022/10/12 06:09:28;;;;;;;15.85;4.22;;;16.40;75.10;;;;;;5052234;28;20041;-69
2022/10/12 06:11:54;;;;;;;22.80;4.93;;;16.50;75.10;;;;;;5053161;28;20032;-69
2022/10/12 06:14:20;;;;;;;18.48;4.97;;;16.50;75.10;;;;;;5051348;28;20033;-71
2022/10/12 06:16:45;;;;;;;18.80;5.05;;;16.50;75.00;;;;;;5052271;28;20033;-70
2022/10/12 06:19:11;;;;;;;18.60;5.13;;;16.60;75.10;;;;;;5052305;28;20079;-71
2022/10/12 06:21:37;;;;;;;20.13;5.07;;;16.70;74.70;;;;;;5012571;28;20049;-68
2022/10/12 06:24:03;;;;;;;17.73;5.22;;;16.70;74.40;;;;;;5080742;28;20027;-70
2022/10/12 06:26:29;;;;;;;14.35;4.95;;;16.80;74.60;;;;;;5092831;28;20485;-68
2022/10/12 06:28:54;;;;;;;14.40;4.78;;;16.80;74.70;;;;;;5092877;28;20361;-68
2022/10/12 06:31:20;;;;;;;15.00;4.82;;;16.80;74.80;;;;;;5092586;28;20028;-68
2022/10/12 06:33:46;;;;;;;16.98;5.22;;;16.90;74.70;;;;;;5092577;28;20059;-68
2022/10/12 06:36:12;;;;;;;17.08;4.57;;;16.90;74.80;;;;;;5092477;28;20032;-68
2022/10/12 06:38:38;;;;;;;16.55;5.35;;;16.90;74.50;;;;;;5076221;28;20032;-68
2022/10/12 06:41:03;;;;;;;14.35;4.82;;;17.00;74.20;;;;;;5072546;28;20378;-68
2022/10/12 06:43:29;;;;;;;21.13;5.32;;;17.10;74.40;;;;;;5054226;28;20034;-70
2022/10/12 06:45:59;;;;;;;16.73;5.30;;;17.10;74.20;;;;;;5072452;28;20040;-68
2022/10/12 06:48:25;;;;;;;19.00;5.38;;;17.20;74.00;;;;;;5072320;28;20549;-68
2022/10/12 06:50:51;;;;;;;14.43;5.18;;;17.20;73.80;;;;;;5087448;28;20061;-68
2022/10/12 06:53:16;;;;;;;24.77;5.22;;;17.20;73.90;;;;;;5092339;28;20036;-68
2022/10/12 06:55:42;;;;;;;17.50;4.70;;;17.30;74.10;;;;;;5092296;28;20047;-69
2022/10/12 06:58:08;;;;;;;15.50;4.50;;;17.30;73.90;;;;;;5074358;28;20047;-68
2022/10/12 07:00:34;;;;;;;21.00;5.55;;;17.40;73.60;;;;;;5072344;28;20071;-68
2022/10/12 07:02:59;;;;;;;14.75;5.15;;;17.50;72.90;;;;;;5072534;28;20562;-66
2022/10/12 07:05:26;;;;;;;15.00;4.60;;;17.50;72.80;;;;;;5072010;28;20044;-68
2022/10/12 07:07:51;;;;;;;13.27;5.15;;;17.50;72.80;;;;;;5072199;28;20044;-67
2022/10/12 07:10:17;;;;;;;18.67;5.72;;;17.60;72.90;;;;;;5072759;28;20477;-67
2022/10/12 07:12:42;;;;;;;11.23;5.00;;;17.70;72.80;;;;;;5072574;28;20378;-68
2022/10/12 07:15:09;;;;;;;16.30;4.65;;;17.80;72.30;;;;;;5072465;28;20036;-68
2022/10/12 07:17:35;;;;;;;16.02;4.95;;;17.80;72.50;;;;;;5072743;28;20035;-68
2022/10/12 07:20:01;;;;;;;14.40;4.65;;;17.90;72.60;;;;;;5072580;28;20117;-68
2022/10/12 07:22:26;;;;;;;18.17;4.60;;;17.90;72.50;;;;;;5076147;28;20074;-67
2022/10/12 07:24:52;;;;;;;18.13;5.28;;;18.00;72.70;;;;;;5076231;28;20044;-67
2022/10/12 07:27:18;;;;;;;18.48;5.50;;;18.00;72.30;;;;;;5076042;28;20041;-68
2022/10/12 07:29:43;;;;;;;23.65;5.40;;;18.10;72.10;;;;;;5075926;28;20117;-67
2022/10/12 07:32:09;;;;;;;21.27;5.05;;;18.10;72.00;;;;;;5076023;28;20032;-68
2022/10/12 07:34:35;;;;;;;22.98;4.88;;;18.10;72.20;;;;;;5075846;28;20456;-68
2022/10/12 07:37:01;;;;;;;17.02;4.45;;;18.10;72.30;;;;;;5075863;28;20427;-68
2022/10/12 07:39:27;;;;;;;14.40;4.93;;;18.10;72.00;;;;;;5075962;28;20059;-68
2022/10/12 07:41:53;;;;;;;20.85;4.65;;;18.20;72.10;;;;;;5075832;28;20028;-68
2022/10/12 07:44:19;;;;;;;25.40;5.57;;;18.20;72.10;;;;;;5057845;28;20048;-68
2022/10/12 07:46:45;;;;;;;16.75;5.10;;;18.20;72.10;;;;;;5075680;28;20037;-68
2022/10/12 07:49:12;;;;;;;14.80;4.70;;;18.20;72.10;;;;;;5076072;28;20048;-68
2022/10/12 07:51:37;;;;;;;17.67;5.05;;;18.30;72.10;;;;;;5075566;28;20025;-67
2022/10/12 07:54:03;;;;;;;16.63;4.88;;;18.30;71.60;;;;;;5075720;28;20044;-68
2022/10/12 07:56:29;;;;;;;12.10;4.65;;;18.40;71.20;;;;;;5076112;28;20040;-67
2022/10/12 07:58:56;;;;;;;15.32;4.63;;;18.40;71.10;;;;;;5075667;28;20039;-68
2022/10/12 08:01:24;;;;;;;16.65;4.55;;;18.50;71.00;;;;;;5075589;28;20037;-68
2022/10/12 08:03:50;;;;;;;17.17;5.53;;;18.60;70.70;;;;;;5075432;28;20086;-68
2022/10/12 08:06:19;;;;;;;21.80;5.20;;;18.70;70.30;;;;;;5075358;28;20052;-68
2022/10/12 08:08:45;;;;;;;23.77;5.72;;;18.70;70.40;;;;;;5075289;28;20478;-73
2022/10/12 08:11:12;;;;;;;25.48;5.60;;;18.80;70.50;;;;;;5075305;28;20107;-68
2022/10/12 08:13:38;;;;;;;25.20;6.13;;;18.80;70.20;;;;;;5075355;28;20033;-69
2022/10/12 08:16:07;;;;;;;16.30;5.97;;;18.90;70.30;;;;;;5075600;28;20056;-69
2022/10/12 08:18:32;;;;;;;12.27;5.25;;;18.90;70.30;;;;;;5075365;28;20036;-69
2022/10/12 08:20:58;;;;;;;17.88;5.72;;;18.90;70.20;;;;;;5075314;28;20036;-69
2022/10/12 08:23:24;;;;;;;14.23;5.78;;;19.00;70.10;;;;;;5075194;28;20039;-68
2022/10/12 08:25:52;;;;;;;15.30;6.10;;;19.00;70.00;;;;;;5074929;28;20032;-68
2022/10/12 08:28:17;;;;;;;10.43;5.60;;;19.10;69.80;;;;;;5074973;28;20400;-68
2022/10/12 08:30:43;;;;;;;19.00;6.78;;;19.10;69.20;;;;;;5074883;28;20032;-68
2022/10/12 08:33:09;;;;;;;20.40;6.22;;;19.20;68.80;;;;;;5074142;28;20044;-68
2022/10/12 08:35:37;;;;;;;26.35;7.07;;;19.30;68.30;;;;;;5074842;28;20032;-68
2022/10/12 08:38:03;;;;;;;19.02;5.25;;;19.30;67.60;;;;;;5074964;28;20431;-68
2022/10/12 08:40:32;;;;;;;12.07;4.78;;;19.30;67.50;;;;;;5074766;28;20115;-68
2022/10/12 08:43:14;;;;;;;11.73;4.38;;;19.40;68.80;;;;;;5074840;28;20640;-68
2022/10/12 08:45:49;;;;;;;22.88;4.90;;;19.40;67.80;;;;;;5074951;28;20048;-67
2022/10/12 08:48:21;;;;;;;14.70;4.68;;;19.50;67.30;;;;;;5074726;28;20362;-68
2022/10/12 08:50:57;;;;;;;15.68;4.63;;;19.50;67.50;;;;;;5074159;28;20036;-72
2022/10/12 08:53:54;;;;;;;14.68;4.07;;;19.60;66.30;;;;;;5072952;28;20037;-68
2022/10/12 08:56:20;;;;;;;12.02;5.00;;;19.60;66.40;;;;;;5073747;28;20186;-67
2022/10/12 08:58:48;;;;;;;25.30;5.00;;;19.70;67.00;;;;;;5074466;28;20064;-68
2022/10/12 09:01:52;;;;;;;23.73;5.28;;;19.80;66.00;;;;;;5074500;28;20024;-68
2022/10/12 09:04:32;;;;;;;14.95;4.10;;;19.80;65.30;;;;;;5031618;28;20060;-68
2022/10/12 09:07:08;;;;;;;16.63;4.63;;;19.90;65.30;;;;;;5069279;28;20489;-67
2022/10/12 09:09:36;;;;;;;19.50;6.20;;;19.90;65.10;;;;;;5074019;28;20489;-68
2022/10/12 09:12:17;;;;;;;16.35;4.90;;;20.00;65.10;;;;;;5074005;28;20089;-68
2022/10/12 09:14:44;;;;;;;17.70;4.43;;;20.00;65.00;;;;;;5074087;28;20040;-67
2022/10/12 09:17:25;;;;;;;15.25;4.40;;;20.10;65.60;;;;;;5073908;28;20519;-67
2022/10/12 09:20:01;;;;;;;18.38;6.00;;;20.20;64.20;;;;;;5074262;28;20563;-68
2022/10/12 09:22:29;;;;;;;22.17;4.28;;;20.20;64.50;;;;;;5074151;28;20039;-68
2022/10/12 09:24:56;;;;;;;17.70;4.10;;;20.30;63.20;;;;;;5073943;28;20040;-74
2022/10/12 09:27:22;;;;;;;19.00;4.57;;;20.30;62.70;;;;;;5073839;28;20097;-67
2022/10/12 09:29:53;;;;;;;10.80;4.43;;;20.30;61.70;;;;;;5073628;28;20036;-67
2022/10/12 09:32:30;;;;;;;16.15;4.53;;;20.40;62.40;;;;;;5073853;28;20032;-68
2022/10/12 09:34:58;;;;;;;15.63;4.40;;;20.50;62.10;;;;;;5073901;28;20036;-68
2022/10/12 09:37:28;;;;;;;15.15;4.20;;;20.50;61.70;;;;;;5055840;28;20174;-68
2022/10/12 09:39:54;;;;;;;13.85;4.65;;;20.50;61.10;;;;;;5073978;28;20039;-68
2022/10/12 09:42:19;;;;;;;14.90;4.47;;;20.60;60.50;;;;;;5073680;28;20070;-68
2022/10/12 09:44:51;;;;;;;23.05;4.72;;;20.60;61.30;;;;;;5073292;28;20499;-68
2022/10/12 09:47:19;;;;;;;14.02;4.35;;;20.70;61.00;;;;;;5073628;28;20052;-67
2022/10/12 09:49:49;;;;;;;15.40;4.30;;;20.70;60.70;;;;;;5073363;28;20029;-68
2022/10/12 09:52:36;;;;;;;15.80;4.38;;;20.80;61.00;;;;;;5073673;28;20037;-68
2022/10/12 09:55:06;;;;;;;14.85;4.72;;;20.90;60.10;;;;;;5065855;28;20385;-68
2022/10/12 09:57:33;;;;;;;15.75;4.13;;;20.90;59.20;;;;;;5073451;28;20094;-66
2022/10/12 10:00:01;;;;;;;11.23;4.40;;;20.90;59.10;;;;;;5073464;28;20028;-68
2022/10/12 10:02:27;;;;;;;14.40;3.90;;;21.00;59.40;;;;;;5073546;28;20043;-68
2022/10/12 10:04:54;;;;;;;18.33;4.20;;;21.00;60.10;;;;;;5073443;28;20111;-67
2022/10/12 10:07:27;;;;;;;14.00;4.07;;;21.10;58.60;;;;;;5073205;28;20048;-67
2022/10/12 10:10:07;;;;;;;19.20;4.20;;;21.20;58.70;;;;;;5073518;28;20032;-68
2022/10/12 10:12:37;;;;;;;12.20;4.47;;;21.20;57.70;;;;;;5073284;28;20042;-68
2022/10/12 10:15:03;;;;;;;14.20;3.95;;;21.20;57.20;;;;;;5073299;28;20362;-67
2022/10/12 10:17:32;;;;;;;13.50;4.13;;;21.30;57.60;;;;;;5073476;28;20032;-68
2022/10/12 10:20:02;;;;;;;15.25;5.05;;;21.30;57.10;;;;;;5073026;28;20389;-68
2022/10/12 10:22:28;;;;;;;11.55;3.90;;;21.40;57.20;;;;;;5072834;28;20075;-67
2022/10/12 10:24:57;;;;;;;9.15;4.10;;;21.40;59.10;;;;;;5072575;28;20060;-68
2022/10/12 10:27:28;;;;;;;10.55;3.67;;;21.40;57.30;;;;;;5071645;28;20036;-68
2022/10/12 10:30:07;;;;;;;18.30;3.72;;;21.50;55.70;;;;;;5072856;28;20028;-68
2022/10/12 10:32:33;;;;;;;9.38;3.72;;;21.60;55.80;;;;;;5072907;28;20032;-68
2022/10/12 10:35:00;;;;;;;14.13;4.05;;;21.60;55.40;;;;;;5072711;28;20488;-68
2022/10/12 10:37:26;;;;;;;11.02;4.15;;;21.70;56.00;;;;;;5072928;28;20044;-68
2022/10/12 10:39:54;;;;;;;11.48;4.78;;;21.80;56.80;;;;;;5054347;28;20569;-68
2022/10/12 10:42:24;;;;;;;19.40;4.25;;;21.80;56.30;;;;;;5072291;28;20036;-68
2022/10/12 10:44:55;;;;;;;16.35;4.53;;;21.90;57.90;;;;;;5072262;28;20024;-74
2022/10/12 10:47:21;;;;;;;14.90;4.82;;;22.00;57.00;;;;;;5072101;28;20047;-68
2022/10/12 10:50:20;;;;;;;15.15;4.50;;;22.00;55.40;;;;;;5071938;28;20032;-69
2022/10/12 10:52:56;;;;;;;15.13;4.60;;;22.10;55.50;;;;;;5072187;28;20032;-68
2022/10/12 10:55:40;;;;;;;13.98;4.38;;;22.20;55.00;;;;;;5072909;28;20039;-68
2022/10/12 10:58:24;;;;;;;16.63;4.93;;;22.30;54.90;;;;;;5076641;28;20043;-68
2022/10/12 11:00:52;;;;;;;14.60;4.55;;;22.20;54.90;;;;;;5076592;28;20040;-68
2022/10/12 11:03:30;;;;;;;13.55;4.75;;;22.30;55.20;;;;;;5076465;28;20113;-68
2022/10/12 11:06:28;;;;;;;16.35;5.25;;;22.20;54.90;;;;;;5076027;28;20044;-68
2022/10/12 11:09:02;;;;;;;11.40;4.20;;;22.30;53.90;;;;;;5055691;28;20128;-68
2022/10/12 11:11:33;;;;;;;13.77;5.55;;;22.30;54.80;;;;;;5076397;28;20060;-68
2022/10/12 11:14:04;;;;;;;8.85;4.30;;;22.30;54.80;;;;;;5076119;28;20024;-68
2022/10/12 11:16:57;;;;;;;14.20;5.07;;;22.40;54.50;;;;;;5076313;28;20032;-74
2022/10/12 11:19:35;;;;;;;12.20;4.97;;;22.40;54.50;;;;;;5076240;28;20166;-68
2022/10/12 11:22:14;;;;;;;18.23;5.22;;;22.40;53.90;;;;;;5076381;28;20047;-68
2022/10/12 11:24:46;;;;;;;14.57;5.28;;;22.50;53.80;;;;;;5076090;28;20044;-68
2022/10/12 11:27:23;;;;;;;17.33;5.68;;;22.50;53.90;;;;;;5075939;28;20460;-73
2022/10/12 11:29:57;;;;;;;14.48;5.15;;;22.50;54.30;;;;;;5075532;28;20387;-68
2022/10/12 11:32:37;;;;;;;9.70;5.30;;;22.50;53.90;;;;;;5075922;28;20036;-68
2022/10/12 11:35:04;;;;;;;10.95;5.25;;;22.50;55.20;;;;;;5075966;28;20065;-68
2022/10/12 11:37:46;;;;;;;11.10;5.53;;;22.60;54.80;;;;;;5075958;28;20037;-68
2022/10/12 11:40:28;;;;;;;21.42;6.03;;;22.60;55.20;;;;;;5075648;28;20036;-69
2022/10/12 11:42:54;;;;;;;18.15;5.82;;;22.70;54.90;;;;;;5076267;28;20092;-68
2022/10/12 11:45:33;;;;;;;12.70;5.20;;;22.70;53.70;;;;;;5075806;28;20036;-69
2022/10/12 11:48:12;;;;;;;16.02;5.53;;;22.70;54.10;;;;;;5075458;28;20025;-69
2022/10/12 11:50:41;;;;;;;14.60;5.63;;;22.70;54.40;;;;;;5075983;28;20380;-69
2022/10/12 11:53:24;;;;;;;13.90;5.57;;;22.80;53.40;;;;;;5075667;28;20082;-69
2022/10/12 11:56:08;;;;;;;18.65;5.80;;;22.80;53.30;;;;;;5075636;28;20043;-70
2022/10/12 11:58:41;;;;;;;22.45;5.75;;;22.80;53.40;;;;;;5075663;28;20366;-74
2022/10/12 12:01:28;;;;;;;14.82;5.50;;;22.80;54.20;;;;;;5075365;28;20428;-68
2022/10/12 12:04:17;;;;;;;14.18;6.00;;;22.80;54.00;;;;;;5075668;28;20032;-69
2022/10/12 12:06:55;;;;;;;13.02;5.70;;;22.80;53.30;;;;;;5074446;28;20055;-76
2022/10/12 12:09:39;;;;;;;13.98;4.93;;;22.80;54.00;;;;;;5075024;28;20033;-69
2022/10/12 12:12:10;;;;;;;15.30;5.43;;;22.80;54.10;;;;;;5075182;28;20028;-70
2022/10/12 12:14:44;;;;;;;12.50;5.28;;;22.90;54.20;;;;;;5075474;28;20060;-72
2022/10/12 12:17:33;;;;;;;13.88;5.15;;;22.90;53.00;;;;;;5075166;28;20039;-69
2022/10/12 12:20:00;;;;;;;13.68;5.65;;;23.00;54.00;;;;;;5074339;28;20025;-70
2022/10/12 12:22:33;;;;;;;14.02;4.97;;;23.00;53.20;;;;;;5075173;28;20491;-69
2022/10/12 12:25:09;;;;;;;12.70;6.05;;;23.00;52.40;;;;;;5075041;28;20481;-71
2022/10/12 12:27:46;;;;;;;11.90;5.43;;;23.10;53.20;;;;;;5075017;28;20043;-70
2022/10/12 12:30:17;;;;;;;8.95;5.00;;;23.10;52.40;;;;;;5074757;28;20029;-70
2022/10/12 12:32:58;;;;;;;8.75;4.68;;;23.10;52.50;;;;;;5074759;28;20190;-70
2022/10/12 12:35:32;;;;;;;14.00;5.40;;;23.10;53.50;;;;;;5074644;28;20340;-69
2022/10/12 12:38:04;;;;;;;13.07;5.32;;;23.20;52.20;;;;;;5074595;28;20036;-70
2022/10/12 12:40:31;;;;;;;17.08;4.70;;;23.10;52.10;;;;;;5074656;28;20123;-69
2022/10/12 12:43:19;;;;;;;9.35;5.07;;;23.10;52.60;;;;;;5074647;28;20116;-69
2022/10/12 12:46:05;;;;;;;15.05;6.53;;;23.20;52.70;;;;;;5074644;28;20059;-69
2022/10/12 12:48:45;;;;;;;11.68;4.97;;;23.20;52.40;;;;;;5074523;28;20029;-69
2022/10/12 12:51:22;;;;;;;12.85;5.05;;;23.10;51.50;;;;;;5074366;28;20067;-70
2022/10/12 12:53:59;;;;;;;15.75;5.38;;;23.10;52.70;;;;;;5074347;28;20501;-68